Time;durP1;ratioP1;P1;durP2;ratioP2;P2;SDS_P1;SDS_P2;PMS_P1;PMS_P2;Temp;Humidity;BMP_temperature;BMP_pressure;BME280_temperature;BME280_humidity;BME280_pressure;Samples;Min_cycle;Max_cycle;Signal;HPM_P1;HPM_P2
2021/09/07 00:02:15;;;;;;;5.37;2.58;;;19.40;54.70;;;;;;2601772;52;21498;-70
2021/09/07 00:04:42;;;;;;;4.35;2.55;;;19.40;54.70;;;;;;2356012;52;20962;-70
2021/09/07 00:07:08;;;;;;;4.30;2.50;;;19.30;54.70;;;;;;2426403;52;21980;-69
2021/09/07 00:09:35;;;;;;;4.37;2.50;;;19.30;54.70;;;;;;2351350;53;20948;-70
2021/09/07 00:12:02;;;;;;;5.65;2.70;;;19.30;54.70;;;;;;2546133;52;20954;-69
2021/09/07 00:14:29;;;;;;;4.72;2.62;;;19.20;54.80;;;;;;2601983;52;21461;-69
2021/09/07 00:16:55;;;;;;;5.28;3.12;;;19.20;54.80;;;;;;2602556;52;22162;-69
2021/09/07 00:19:21;;;;;;;3.75;2.37;;;19.20;54.90;;;;;;2515747;52;21151;-73
2021/09/07 00:21:50;;;;;;;4.55;2.50;;;19.10;54.90;;;;;;2368744;53;20995;-69
2021/09/07 00:24:19;;;;;;;4.95;3.05;;;19.10;54.90;;;;;;2345669;53;21513;-72
2021/09/07 00:26:45;;;;;;;5.28;3.03;;;19.10;55.00;;;;;;2352223;53;21613;-69
2021/09/07 00:29:12;;;;;;;5.10;2.83;;;19.00;55.60;;;;;;2355379;53;21003;-70
2021/09/07 00:31:38;;;;;;;4.95;2.70;;;18.90;55.00;;;;;;2602286;52;20933;-69
2021/09/07 00:34:05;;;;;;;7.00;3.08;;;18.90;55.00;;;;;;2355901;52;20970;-69
2021/09/07 00:36:31;;;;;;;4.25;2.45;;;18.90;55.10;;;;;;2588462;52;21496;-69
2021/09/07 00:38:57;;;;;;;4.72;2.60;;;18.90;55.10;;;;;;2351727;52;21380;-69
2021/09/07 00:41:23;;;;;;;4.72;2.92;;;18.90;55.10;;;;;;2360068;52;21435;-74
2021/09/07 00:43:50;;;;;;;4.95;3.03;;;18.80;55.10;;;;;;2348476;53;21533;-70
2021/09/07 00:46:16;;;;;;;6.10;3.20;;;18.80;55.20;;;;;;2530750;52;21480;-69
2021/09/07 00:48:43;;;;;;;7.45;3.12;;;18.80;55.40;;;;;;2601767;52;20933;-69
2021/09/07 00:51:09;;;;;;;5.32;2.95;;;18.80;55.40;;;;;;2601951;52;21439;-69
2021/09/07 00:53:36;;;;;;;4.35;2.78;;;18.70;55.30;;;;;;2351778;52;20959;-68
2021/09/07 00:56:02;;;;;;;4.40;2.60;;;18.70;55.40;;;;;;2332246;53;21487;-69
2021/09/07 00:58:30;;;;;;;4.25;2.50;;;18.70;55.40;;;;;;2568714;52;20918;-69
2021/09/07 01:01:00;;;;;;;4.85;3.12;;;18.70;55.40;;;;;;2355923;52;20943;-69
2021/09/07 01:03:26;;;;;;;4.15;2.47;;;18.60;55.50;;;;;;2350218;53;20994;-72
2021/09/07 01:05:53;;;;;;;4.78;2.90;;;18.60;55.50;;;;;;2336168;53;20992;-71
2021/09/07 01:08:19;;;;;;;4.87;2.90;;;18.60;55.50;;;;;;2478745;52;20970;-70
2021/09/07 01:10:46;;;;;;;5.10;2.78;;;18.60;55.60;;;;;;2361654;52;21503;-70
2021/09/07 01:13:12;;;;;;;5.10;3.00;;;18.60;55.60;;;;;;2335645;53;20951;-69
2021/09/07 01:15:39;;;;;;;7.28;3.35;;;18.50;55.60;;;;;;2335824;53;21084;-68
2021/09/07 01:18:05;;;;;;;6.60;2.80;;;18.50;55.60;;;;;;2351776;52;21498;-72
2021/09/07 01:20:31;;;;;;;4.70;2.78;;;18.50;55.60;;;;;;2342920;53;21537;-70
2021/09/07 01:22:58;;;;;;;5.70;2.80;;;18.50;55.70;;;;;;2582781;52;21511;-70
2021/09/07 01:25:24;;;;;;;4.35;2.58;;;18.40;55.70;;;;;;2354179;52;21074;-72
2021/09/07 01:27:51;;;;;;;5.15;2.72;;;18.40;55.70;;;;;;2356107;52;21332;-70
2021/09/07 01:30:18;;;;;;;5.57;2.75;;;18.30;55.70;;;;;;2356262;52;21484;-73
2021/09/07 01:32:44;;;;;;;4.18;2.45;;;18.30;55.80;;;;;;2588432;52;21790;-73
2021/09/07 01:35:11;;;;;;;4.50;2.62;;;18.30;55.90;;;;;;2326606;53;21923;-69
2021/09/07 01:37:40;;;;;;;4.32;2.60;;;18.30;56.50;;;;;;2519441;52;20958;-69
2021/09/07 01:40:07;;;;;;;5.93;3.40;;;18.10;55.90;;;;;;2351385;53;21671;-68
2021/09/07 01:42:33;;;;;;;4.62;2.80;;;18.20;56.00;;;;;;2351416;52;20961;-73
2021/09/07 01:44:59;;;;;;;4.50;2.75;;;18.20;56.70;;;;;;2479069;52;21027;-69
2021/09/07 01:47:26;;;;;;;4.97;2.90;;;18.20;56.20;;;;;;2351478;53;21036;-69
2021/09/07 01:49:52;;;;;;;5.28;3.22;;;18.10;56.10;;;;;;2351536;53;21120;-70
2021/09/07 01:52:18;;;;;;;5.93;3.60;;;18.10;56.10;;;;;;2356991;52;21514;-71
2021/09/07 01:54:46;;;;;;;5.53;2.83;;;18.20;56.30;;;;;;2356787;52;21361;-68
2021/09/07 01:57:12;;;;;;;7.50;2.95;;;18.10;56.20;;;;;;2332053;53;20965;-72
2021/09/07 01:59:39;;;;;;;4.45;2.92;;;18.10;56.20;;;;;;2356330;52;21014;-68
2021/09/07 02:02:05;;;;;;;4.50;2.85;;;18.00;56.10;;;;;;2340260;53;20989;-70
2021/09/07 02:04:32;;;;;;;4.20;2.65;;;18.00;56.20;;;;;;2349223;53;21820;-72
2021/09/07 02:06:58;;;;;;;5.05;3.08;;;18.00;56.30;;;;;;2354607;52;20959;-69
2021/09/07 02:09:24;;;;;;;4.50;2.85;;;18.00;56.30;;;;;;2356155;52;21325;-67
2021/09/07 02:11:51;;;;;;;5.00;2.67;;;18.00;56.40;;;;;;2330649;53;21024;-72
2021/09/07 02:14:17;;;;;;;6.12;3.10;;;17.90;56.30;;;;;;2351823;53;21104;-69
2021/09/07 02:16:43;;;;;;;5.57;3.17;;;18.00;56.40;;;;;;2354683;52;20963;-71
2021/09/07 02:19:10;;;;;;;4.80;2.97;;;17.90;56.40;;;;;;2351307;53;21809;-69
2021/09/07 02:21:36;;;;;;;5.78;2.75;;;17.90;56.50;;;;;;2355692;52;20973;-69
2021/09/07 02:24:03;;;;;;;5.15;3.20;;;17.90;56.40;;;;;;2350386;53;20946;-69
2021/09/07 02:26:29;;;;;;;5.60;3.30;;;17.80;56.40;;;;;;2352731;53;21391;-69
2021/09/07 02:28:56;;;;;;;6.15;3.35;;;17.80;56.50;;;;;;2351620;53;21468;-69
2021/09/07 02:31:22;;;;;;;4.95;3.15;;;17.80;56.50;;;;;;2351957;53;21601;-69
2021/09/07 02:33:49;;;;;;;5.72;3.50;;;17.80;56.50;;;;;;2356271;52;21070;-70
2021/09/07 02:36:15;;;;;;;5.75;3.35;;;17.80;56.50;;;;;;2345980;53;20957;-69
2021/09/07 02:38:41;;;;;;;5.80;3.58;;;17.70;56.40;;;;;;2339298;53;21478;-69
2021/09/07 02:41:08;;;;;;;6.07;3.00;;;17.70;56.60;;;;;;2575293;52;21424;-70
2021/09/07 02:43:38;;;;;;;6.60;3.17;;;17.70;56.60;;;;;;2351091;53;21053;-68
2021/09/07 02:46:05;;;;;;;5.12;3.20;;;17.70;56.60;;;;;;2581369;52;21009;-72
2021/09/07 02:48:31;;;;;;;5.25;3.45;;;17.70;56.80;;;;;;2351489;53;21572;-69
2021/09/07 02:50:57;;;;;;;5.18;2.80;;;17.60;56.70;;;;;;2351893;53;21671;-69
2021/09/07 02:53:25;;;;;;;4.25;2.62;;;17.60;56.70;;;;;;2360244;52;20962;-69
2021/09/07 02:55:52;;;;;;;4.68;2.60;;;17.60;56.70;;;;;;2389967;52;20930;-68
2021/09/07 02:58:18;;;;;;;4.47;2.58;;;17.60;56.80;;;;;;2339543;53;20968;-69
2021/09/07 03:00:45;;;;;;;5.12;2.90;;;17.60;56.70;;;;;;2344776;53;21526;-71
2021/09/07 03:03:11;;;;;;;4.90;3.17;;;17.60;56.80;;;;;;2354569;53;21044;-70
2021/09/07 03:05:38;;;;;;;4.47;2.62;;;17.60;56.80;;;;;;2492294;52;20963;-69
2021/09/07 03:08:05;;;;;;;4.72;2.85;;;17.60;56.90;;;;;;2355875;52;20953;-69
2021/09/07 03:10:34;;;;;;;4.90;3.05;;;17.50;56.80;;;;;;2601404;52;20950;-69
2021/09/07 03:13:00;;;;;;;4.90;2.90;;;17.50;56.70;;;;;;2389232;52;21065;-69
2021/09/07 03:15:26;;;;;;;4.90;3.00;;;17.50;56.70;;;;;;2352408;53;20954;-70
2021/09/07 03:17:53;;;;;;;4.45;2.80;;;17.50;56.80;;;;;;2352063;53;21028;-69
2021/09/07 03:20:19;;;;;;;5.12;2.72;;;17.40;56.80;;;;;;2351434;53;21013;-69
2021/09/07 03:22:45;;;;;;;5.22;3.17;;;17.40;56.80;;;;;;2355015;53;21380;-73
2021/09/07 03:25:12;;;;;;;6.82;2.97;;;17.40;56.80;;;;;;2356203;52;21280;-69
2021/09/07 03:27:38;;;;;;;5.28;3.08;;;17.40;57.00;;;;;;2352686;53;21385;-74
2021/09/07 03:30:05;;;;;;;4.87;2.70;;;17.40;57.00;;;;;;2350935;53;21526;-72
2021/09/07 03:32:31;;;;;;;5.40;2.97;;;17.40;57.00;;;;;;2360035;52;21030;-75
2021/09/07 03:34:58;;;;;;;4.87;2.90;;;17.30;56.90;;;;;;2332739;53;21995;-68
2021/09/07 03:37:24;;;;;;;4.57;2.60;;;17.30;57.00;;;;;;2355238;53;21532;-73
2021/09/07 03:39:50;;;;;;;5.07;3.10;;;17.30;57.00;;;;;;2351275;53;20990;-68
2021/09/07 03:42:17;;;;;;;4.68;2.95;;;17.30;57.10;;;;;;2351480;53;21506;-69
2021/09/07 03:44:43;;;;;;;4.00;2.42;;;17.20;57.00;;;;;;2356289;52;20986;-68
2021/09/07 03:47:09;;;;;;;5.43;3.20;;;17.20;57.00;;;;;;2528508;52;20941;-69
2021/09/07 03:49:44;;;;;;;4.53;2.95;;;17.20;56.90;;;;;;2500347;52;20966;-69
2021/09/07 03:52:10;;;;;;;5.00;3.10;;;17.20;57.30;;;;;;2335596;52;21004;-68
2021/09/07 03:54:37;;;;;;;5.60;3.28;;;17.20;57.10;;;;;;2548678;52;22230;-70
2021/09/07 03:57:03;;;;;;;5.32;3.17;;;17.10;57.00;;;;;;2350704;53;21335;-69
2021/09/07 03:59:30;;;;;;;4.70;2.78;;;17.10;57.00;;;;;;2356320;52;21552;-75
2021/09/07 04:01:57;;;;;;;4.82;2.97;;;17.00;56.90;;;;;;2353228;52;20902;-70
2021/09/07 04:04:25;;;;;;;4.43;2.83;;;17.10;57.10;;;;;;2429604;52;21028;-68
2021/09/07 04:06:51;;;;;;;4.78;3.05;;;17.00;57.10;;;;;;2355576;52;21493;-68
2021/09/07 04:09:19;;;;;;;5.07;3.15;;;17.00;57.10;;;;;;2532216;52;20966;-69
2021/09/07 04:11:45;;;;;;;5.12;2.80;;;17.00;57.10;;;;;;2354645;53;21125;-69
2021/09/07 04:14:12;;;;;;;6.57;3.03;;;17.00;57.20;;;;;;2350107;53;21488;-69
2021/09/07 04:16:38;;;;;;;5.03;3.25;;;16.90;57.20;;;;;;2352401;52;21486;-68
2021/09/07 04:19:04;;;;;;;5.43;3.17;;;17.00;57.20;;;;;;2350563;53;21100;-73
2021/09/07 04:21:30;;;;;;;4.57;2.85;;;16.90;57.20;;;;;;2352130;53;21857;-73
2021/09/07 04:23:57;;;;;;;4.07;2.70;;;16.90;57.20;;;;;;2355347;53;21664;-68
2021/09/07 04:26:23;;;;;;;5.57;2.90;;;16.90;57.30;;;;;;2350711;52;20946;-74
2021/09/07 04:28:50;;;;;;;5.22;2.97;;;16.90;57.30;;;;;;2355559;53;20922;-72
2021/09/07 04:31:18;;;;;;;5.53;3.10;;;16.80;57.20;;;;;;2356896;52;22010;-69
2021/09/07 04:33:45;;;;;;;6.07;3.10;;;16.80;57.20;;;;;;2336986;53;21297;-73
2021/09/07 04:36:11;;;;;;;5.35;3.10;;;16.80;57.20;;;;;;2346870;53;21502;-72
2021/09/07 04:38:37;;;;;;;5.70;3.53;;;16.80;57.20;;;;;;2601191;52;21382;-71
2021/09/07 04:41:06;;;;;;;6.35;3.80;;;16.80;57.30;;;;;;2336050;53;21581;-69
2021/09/07 04:43:33;;;;;;;5.07;2.85;;;16.70;57.40;;;;;;2359076;52;21177;-68
2021/09/07 04:46:00;;;;;;;6.15;3.22;;;16.70;57.30;;;;;;2448858;52;21567;-68
2021/09/07 04:48:26;;;;;;;5.07;3.10;;;16.70;57.40;;;;;;2402601;52;21307;-73
2021/09/07 04:50:52;;;;;;;7.70;3.25;;;16.70;57.40;;;;;;2348692;53;21546;-68
2021/09/07 04:53:19;;;;;;;5.45;3.20;;;16.60;57.50;;;;;;2354827;52;21576;-68
2021/09/07 04:55:47;;;;;;;4.85;2.62;;;16.60;57.50;;;;;;2461044;52;21085;-70
2021/09/07 04:58:13;;;;;;;4.57;2.72;;;16.60;57.50;;;;;;2353423;53;21580;-73
2021/09/07 05:00:39;;;;;;;5.28;3.03;;;16.60;57.60;;;;;;2350959;53;21560;-68
2021/09/07 05:03:06;;;;;;;5.20;3.25;;;16.50;57.50;;;;;;2485043;52;20933;-68
2021/09/07 05:05:33;;;;;;;5.55;2.80;;;16.50;57.60;;;;;;2351975;53;20997;-68
2021/09/07 05:07:59;;;;;;;5.28;2.90;;;16.50;57.60;;;;;;2352076;53;21464;-68
2021/09/07 05:10:26;;;;;;;5.43;3.33;;;16.40;57.60;;;;;;2408155;52;21014;-68
2021/09/07 05:12:52;;;;;;;5.12;3.00;;;16.50;57.70;;;;;;2333895;53;21928;-71
2021/09/07 05:15:19;;;;;;;5.47;3.25;;;16.50;57.80;;;;;;2350823;52;21395;-67
2021/09/07 05:17:45;;;;;;;5.87;3.10;;;16.50;57.80;;;;;;2355534;52;21455;-68
2021/09/07 05:20:11;;;;;;;5.18;3.15;;;16.50;57.90;;;;;;2351629;53;21645;-70
2021/09/07 05:22:38;;;;;;;5.07;3.00;;;16.50;57.90;;;;;;2351224;53;20914;-73
2021/09/07 05:25:05;;;;;;;5.80;3.37;;;16.50;58.00;;;;;;2351232;53;20965;-68
2021/09/07 05:27:32;;;;;;;6.80;3.35;;;16.40;57.90;;;;;;2350470;52;22003;-70
2021/09/07 05:30:17;;;;;;;6.72;3.92;;;16.50;58.10;;;;;;2376388;52;21004;-72
2021/09/07 05:32:43;;;;;;;6.22;3.53;;;16.50;58.40;;;;;;2332748;53;20914;-70
2021/09/07 05:35:10;;;;;;;5.22;3.35;;;16.50;58.20;;;;;;2356568;52;22124;-69
2021/09/07 05:37:40;;;;;;;4.62;2.70;;;16.50;58.30;;;;;;2352693;53;21009;-69
2021/09/07 05:40:13;;;;;;;6.82;2.92;;;16.50;58.30;;;;;;2352207;53;20929;-71
2021/09/07 05:42:42;;;;;;;6.03;3.65;;;16.50;58.60;;;;;;2352999;53;20941;-69
2021/09/07 05:45:15;;;;;;;6.05;3.65;;;16.50;58.40;;;;;;2351888;53;20945;-69
2021/09/07 05:47:42;;;;;;;4.90;3.30;;;16.50;58.70;;;;;;2336112;53;20978;-69
2021/09/07 05:50:09;;;;;;;5.62;3.35;;;16.60;58.60;;;;;;2350498;53;20961;-67
2021/09/07 05:52:36;;;;;;;6.55;3.22;;;16.50;58.50;;;;;;2466419;52;20946;-68
2021/09/07 05:55:03;;;;;;;5.57;3.45;;;16.60;58.60;;;;;;2355714;52;21317;-69
2021/09/07 05:57:29;;;;;;;5.85;2.90;;;16.60;58.70;;;;;;2356393;52;21515;-68
2021/09/07 05:59:55;;;;;;;5.12;3.00;;;16.60;58.70;;;;;;2350350;52;20949;-71
2021/09/07 06:02:22;;;;;;;5.03;2.95;;;16.70;58.90;;;;;;2601727;52;20985;-68
2021/09/07 06:04:48;;;;;;;8.80;3.65;;;16.70;58.90;;;;;;2356879;52;20977;-69
2021/09/07 06:07:15;;;;;;;5.85;3.95;;;16.80;59.00;;;;;;2334263;53;21836;-69
2021/09/07 06:09:42;;;;;;;5.20;3.28;;;16.80;59.00;;;;;;2355564;53;21655;-70
2021/09/07 06:12:08;;;;;;;5.80;3.85;;;16.80;59.10;;;;;;2347929;53;21022;-73
2021/09/07 06:14:34;;;;;;;6.25;3.70;;;16.80;59.10;;;;;;2540434;52;21021;-73
2021/09/07 06:17:01;;;;;;;5.60;3.60;;;16.90;59.20;;;;;;2378372;52;20941;-68
2021/09/07 06:19:27;;;;;;;7.07;3.30;;;16.90;59.20;;;;;;2351476;53;21245;-70
2021/09/07 06:21:54;;;;;;;6.47;3.45;;;16.90;59.20;;;;;;2602565;52;20923;-71
2021/09/07 06:24:20;;;;;;;6.78;3.60;;;17.00;59.30;;;;;;2352060;53;21323;-68
2021/09/07 06:26:47;;;;;;;5.20;3.22;;;17.00;59.40;;;;;;2353584;53;21001;-67
2021/09/07 06:29:13;;;;;;;7.03;3.95;;;17.00;59.40;;;;;;2357057;52;20990;-68
2021/09/07 06:31:40;;;;;;;5.35;3.60;;;17.20;59.70;;;;;;2353992;52;21880;-68
2021/09/07 06:34:06;;;;;;;5.25;3.37;;;17.20;59.70;;;;;;2351810;53;21525;-68
2021/09/07 06:36:32;;;;;;;5.53;3.50;;;17.30;59.80;;;;;;2351896;53;21424;-68
2021/09/07 06:38:59;;;;;;;6.68;3.50;;;17.30;59.90;;;;;;2350870;52;21025;-68
2021/09/07 06:41:25;;;;;;;5.70;3.58;;;17.40;60.00;;;;;;2352795;52;21303;-70
2021/09/07 06:43:52;;;;;;;5.95;4.00;;;17.50;60.20;;;;;;2453751;52;21021;-73
2021/09/07 06:46:18;;;;;;;7.07;3.85;;;17.50;60.20;;;;;;2351482;53;21506;-69
2021/09/07 06:48:44;;;;;;;6.20;3.75;;;17.70;60.40;;;;;;2356410;52;20950;-69
2021/09/07 06:51:11;;;;;;;5.37;3.87;;;17.70;60.30;;;;;;2459963;52;20962;-68
2021/09/07 06:53:37;;;;;;;7.32;3.45;;;17.80;60.20;;;;;;2350678;53;21371;-71
2021/09/07 06:56:04;;;;;;;5.05;3.37;;;17.90;60.20;;;;;;2371357;52;20973;-69
2021/09/07 06:58:30;;;;;;;5.80;3.85;;;17.90;60.00;;;;;;2601359;52;20946;-71
2021/09/07 07:00:57;;;;;;;6.00;3.80;;;18.00;60.00;;;;;;2351709;53;21005;-68
2021/09/07 07:03:23;;;;;;;6.00;3.65;;;18.10;60.00;;;;;;2467393;53;20982;-69
2021/09/07 07:05:50;;;;;;;5.95;3.70;;;18.20;60.10;;;;;;2356361;52;21455;-69
2021/09/07 07:08:16;;;;;;;6.30;4.37;;;18.20;60.00;;;;;;2601103;52;21500;-68
2021/09/07 07:10:43;;;;;;;6.40;4.18;;;18.30;60.00;;;;;;2577029;52;21835;-72
2021/09/07 07:13:11;;;;;;;6.40;4.10;;;18.30;59.80;;;;;;2355338;52;20962;-68
2021/09/07 07:15:37;;;;;;;7.15;4.50;;;18.40;59.90;;;;;;2511659;52;21438;-70
2021/09/07 07:18:04;;;;;;;5.57;3.42;;;18.50;60.00;;;;;;2438064;52;21045;-69
2021/09/07 07:20:32;;;;;;;5.12;3.42;;;18.60;60.00;;;;;;2351269;53;20938;-69
2021/09/07 07:22:59;;;;;;;7.85;4.07;;;18.60;60.00;;;;;;2356062;52;20974;-69
2021/09/07 07:25:25;;;;;;;5.22;3.47;;;18.70;60.00;;;;;;2351147;53;21045;-71
2021/09/07 07:27:51;;;;;;;6.47;4.03;;;18.80;60.20;;;;;;2351118;53;21042;-72
2021/09/07 07:30:17;;;;;;;7.45;4.55;;;18.90;60.30;;;;;;2351495;53;21289;-67
2021/09/07 07:32:44;;;;;;;7.65;4.47;;;18.90;60.30;;;;;;2601248;52;21329;-68
2021/09/07 07:35:26;;;;;;;5.00;3.70;;;19.10;60.30;;;;;;2351568;52;21815;-70
2021/09/07 07:37:52;;;;;;;6.03;4.00;;;19.10;60.30;;;;;;2601620;52;20969;-69
2021/09/07 07:40:18;;;;;;;6.28;3.87;;;19.30;60.20;;;;;;2351583;53;20938;-69
2021/09/07 07:42:45;;;;;;;5.97;3.80;;;19.40;60.10;;;;;;2355399;53;21638;-73
2021/09/07 07:45:11;;;;;;;6.75;4.15;;;19.50;60.10;;;;;;2352024;53;21447;-70
2021/09/07 07:47:37;;;;;;;6.05;4.03;;;19.50;60.00;;;;;;2352505;53;21483;-68
2021/09/07 07:50:07;;;;;;;6.53;3.85;;;19.70;60.10;;;;;;2351415;53;22062;-69
2021/09/07 07:52:33;;;;;;;5.30;3.60;;;19.70;60.00;;;;;;2602399;52;21043;-71
2021/09/07 07:55:00;;;;;;;5.50;3.80;;;19.90;60.00;;;;;;2333402;53;21743;-68
2021/09/07 07:57:26;;;;;;;5.50;3.62;;;19.90;60.00;;;;;;2562857;52;21088;-70
2021/09/07 07:59:52;;;;;;;6.32;4.18;;;20.10;60.10;;;;;;2356098;53;21341;-68
2021/09/07 08:02:19;;;;;;;8.30;5.05;;;20.10;59.90;;;;;;2419141;52;21020;-69
2021/09/07 08:04:52;;;;;;;7.43;4.40;;;20.20;59.60;;;;;;2356408;53;21911;-69
2021/09/07 08:07:18;;;;;;;7.37;4.10;;;20.30;59.60;;;;;;2353658;53;21058;-69
2021/09/07 08:09:45;;;;;;;6.87;3.70;;;20.40;59.70;;;;;;2348491;53;21353;-68
2021/09/07 08:12:16;;;;;;;6.22;4.00;;;20.50;60.40;;;;;;2500427;52;21024;-69
2021/09/07 08:14:48;;;;;;;6.80;3.80;;;20.50;59.60;;;;;;2355156;52;21006;-73
2021/09/07 08:17:14;;;;;;;6.55;4.18;;;20.70;59.60;;;;;;2343070;53;20974;-69
2021/09/07 08:19:41;;;;;;;8.43;3.85;;;20.70;59.60;;;;;;2351116;53;20938;-70
2021/09/07 08:22:09;;;;;;;6.32;4.30;;;20.90;59.80;;;;;;2355585;53;21214;-69
2021/09/07 08:24:39;;;;;;;6.15;4.30;;;21.00;59.80;;;;;;2602193;52;20969;-69
2021/09/07 08:27:05;;;;;;;6.47;4.25;;;21.10;59.80;;;;;;2601791;52;21089;-69
2021/09/07 08:29:32;;;;;;;6.07;3.65;;;21.20;59.80;;;;;;2573790;52;21044;-73
2021/09/07 08:31:58;;;;;;;5.65;3.78;;;21.40;59.90;;;;;;2355027;52;20986;-69
2021/09/07 08:34:25;;;;;;;6.68;3.90;;;21.50;59.90;;;;;;2350407;52;20985;-71
2021/09/07 08:36:51;;;;;;;6.12;3.75;;;21.60;59.80;;;;;;2351403;53;21085;-73
2021/09/07 08:39:17;;;;;;;5.85;3.72;;;21.80;59.70;;;;;;2355712;52;21023;-72
2021/09/07 08:41:44;;;;;;;6.30;3.55;;;21.90;59.60;;;;;;2347920;53;21107;-69
2021/09/07 08:44:11;;;;;;;6.07;3.87;;;22.10;59.50;;;;;;2351237;52;20991;-69
2021/09/07 08:46:37;;;;;;;5.47;3.33;;;22.20;59.50;;;;;;2580997;52;21464;-70
2021/09/07 08:49:12;;;;;;;5.70;3.92;;;22.30;59.40;;;;;;2338964;53;21474;-71
2021/09/07 08:51:39;;;;;;;5.75;3.80;;;22.40;59.30;;;;;;2319854;53;21420;-73
2021/09/07 08:54:05;;;;;;;5.97;3.70;;;22.60;59.30;;;;;;2599580;52;21478;-71
2021/09/07 08:56:31;;;;;;;6.07;3.92;;;22.70;59.20;;;;;;2355891;52;21976;-72
2021/09/07 08:58:57;;;;;;;4.53;3.03;;;22.70;59.00;;;;;;2354556;52;20942;-69
2021/09/07 09:01:25;;;;;;;5.07;3.60;;;22.90;59.00;;;;;;2351330;53;20954;-73
2021/09/07 09:03:52;;;;;;;5.75;4.00;;;23.00;59.10;;;;;;2350706;52;21036;-69
2021/09/07 09:06:25;;;;;;;7.00;3.90;;;23.10;59.30;;;;;;2356195;52;21494;-70
2021/09/07 09:09:06;;;;;;;7.37;4.35;;;23.20;59.20;;;;;;2351183;53;20958;-69
2021/09/07 09:11:49;;;;;;;5.87;3.90;;;23.40;59.00;;;;;;2351574;53;22027;-70
2021/09/07 09:14:32;;;;;;;6.45;3.80;;;23.50;58.90;;;;;;2356513;52;21408;-69
2021/09/07 09:16:58;;;;;;;5.72;3.75;;;23.60;58.80;;;;;;2355741;53;20946;-70
2021/09/07 09:19:25;;;;;;;8.43;3.87;;;23.60;58.80;;;;;;2351604;53;21498;-69
2021/09/07 09:21:51;;;;;;;6.05;3.95;;;23.80;58.90;;;;;;2351418;53;20946;-74
2021/09/07 09:24:19;;;;;;;5.95;3.62;;;23.80;58.70;;;;;;2355329;52;21336;-76
2021/09/07 09:26:58;;;;;;;5.97;3.67;;;23.90;58.60;;;;;;2351328;53;21904;-71
2021/09/07 09:29:26;;;;;;;5.65;3.85;;;24.00;57.50;;;;;;2392856;52;21054;-74
2021/09/07 09:32:06;;;;;;;5.40;3.47;;;24.10;58.20;;;;;;2366306;53;21001;-70
2021/09/07 09:34:33;;;;;;;5.47;3.42;;;24.20;57.50;;;;;;2356273;52;20979;-71
2021/09/07 09:37:04;;;;;;;7.85;3.70;;;24.30;57.40;;;;;;2474987;52;20934;-71
2021/09/07 09:39:47;;;;;;;5.90;3.53;;;24.40;57.40;;;;;;2427439;52;21574;-70
2021/09/07 09:42:30;;;;;;;5.70;3.47;;;24.50;57.10;;;;;;2333302;53;20941;-71
2021/09/07 09:45:03;;;;;;;5.10;3.42;;;24.60;56.80;;;;;;2590120;52;20950;-70
2021/09/07 09:47:41;;;;;;;4.82;3.15;;;24.60;56.80;;;;;;2351357;53;21049;-70
2021/09/07 09:50:08;;;;;;;5.35;3.37;;;24.80;56.90;;;;;;2354545;53;20942;-71
2021/09/07 09:52:39;;;;;;;6.60;3.50;;;24.80;56.90;;;;;;2350276;52;21000;-70
2021/09/07 09:55:07;;;;;;;6.43;3.87;;;24.90;56.80;;;;;;2356766;52;21024;-71
2021/09/07 09:57:34;;;;;;;5.75;3.47;;;25.00;56.60;;;;;;2356298;52;20967;-73
2021/09/07 10:00:02;;;;;;;6.28;4.20;;;25.10;56.40;;;;;;2472378;52;20988;-70
2021/09/07 10:02:32;;;;;;;5.87;3.92;;;25.10;56.10;;;;;;2351054;53;21958;-75
2021/09/07 10:05:00;;;;;;;5.87;3.67;;;25.20;55.80;;;;;;2360216;52;21065;-73
2021/09/07 10:07:26;;;;;;;6.87;3.85;;;25.20;55.70;;;;;;2348916;53;21436;-70
2021/09/07 10:09:54;;;;;;;5.68;4.03;;;25.20;55.60;;;;;;2346511;53;21006;-70
2021/09/07 10:12:29;;;;;;;5.43;3.60;;;25.30;55.30;;;;;;2351667;53;20954;-70
2021/09/07 10:15:07;;;;;;;5.82;3.97;;;25.30;55.20;;;;;;2359337;53;20938;-71
2021/09/07 10:17:41;;;;;;;5.45;3.95;;;25.40;55.50;;;;;;2591382;52;21795;-70
2021/09/07 10:25:12;;;;;;;4.30;2.80;;;25.50;55.30;;;;;;2355208;53;21329;-70
2021/09/07 10:28:04;;;;;;;5.55;3.87;;;25.60;55.60;;;;;;2341643;53;21536;-74
2021/09/07 10:31:16;;;;;;;5.50;3.70;;;25.70;55.10;;;;;;2351907;53;21025;-70
2021/09/07 10:34:01;;;;;;;5.53;3.75;;;25.70;55.10;;;;;;2351371;53;22116;-75
2021/09/07 10:36:28;;;;;;;4.87;3.25;;;25.80;55.10;;;;;;2358870;53;20999;-71
2021/09/07 10:38:56;;;;;;;5.95;3.92;;;25.80;55.20;;;;;;2391063;52;20946;-74
2021/09/07 10:43:45;;;;;;;6.12;3.75;;;25.90;55.00;;;;;;2542917;52;21572;-71
2021/09/07 10:46:12;;;;;;;5.82;3.65;;;26.00;54.60;;;;;;2350323;52;21419;-71
2021/09/07 10:48:38;;;;;;;5.35;3.35;;;26.10;54.80;;;;;;2354386;52;20953;-74
2021/09/07 10:51:04;;;;;;;5.65;3.50;;;26.10;54.60;;;;;;2354756;52;21505;-71
2021/09/07 10:53:31;;;;;;;5.50;3.47;;;26.20;54.60;;;;;;2451592;52;21536;-72
2021/09/07 10:56:23;;;;;;;4.85;3.45;;;26.20;54.70;;;;;;2386857;53;21995;-71
2021/09/07 10:58:49;;;;;;;5.30;3.30;;;26.30;54.40;;;;;;2528758;52;21009;-72
2021/09/07 11:01:28;;;;;;;5.53;3.55;;;26.40;54.60;;;;;;2578997;52;20946;-73
2021/09/07 11:04:29;;;;;;;6.78;3.65;;;26.50;54.20;;;;;;2353166;53;20933;-71
2021/09/07 11:06:56;;;;;;;6.03;3.58;;;26.60;54.00;;;;;;2350025;53;20989;-72
2021/09/07 11:09:50;;;;;;;4.47;3.05;;;26.70;54.20;;;;;;2359496;52;21455;-71
2021/09/07 11:12:32;;;;;;;5.97;3.75;;;26.80;53.70;;;;;;2347094;53;21585;-70
2021/09/07 11:15:03;;;;;;;4.55;2.85;;;26.90;53.80;;;;;;2415609;52;21090;-75
2021/09/07 11:17:30;;;;;;;5.60;3.30;;;27.00;54.00;;;;;;2333988;53;22001;-68
2021/09/07 11:20:07;;;;;;;5.10;3.50;;;27.10;53.90;;;;;;2358069;53;21724;-69
2021/09/07 11:22:34;;;;;;;4.68;3.15;;;27.20;53.00;;;;;;2329444;53;20966;-70
2021/09/07 11:25:37;;;;;;;4.43;3.10;;;27.20;53.00;;;;;;2314621;52;1790813;-70
2021/09/07 11:28:05;;;;;;;3.95;2.50;;;27.30;53.00;;;;;;2401247;52;21014;-69
2021/09/07 11:30:36;;;;;;;4.68;2.87;;;27.40;53.00;;;;;;2401012;52;21588;-69
2021/09/07 11:33:16;;;;;;;5.55;3.10;;;27.50;52.50;;;;;;2404248;52;22052;-69
2021/09/07 11:36:16;;;;;;;4.40;3.03;;;27.50;52.20;;;;;;2590421;52;20930;-69
2021/09/07 11:38:46;;;;;;;7.70;3.97;;;27.60;51.70;;;;;;2600904;52;20971;-69
2021/09/07 11:41:14;;;;;;;5.28;3.62;;;27.60;51.90;;;;;;2351053;53;20949;-69
2021/09/07 11:43:49;;;;;;;3.97;2.80;;;27.70;51.90;;;;;;2429785;52;21531;-70
2021/09/07 11:46:17;;;;;;;5.25;3.28;;;27.60;51.50;;;;;;2436775;52;20938;-69
2021/09/07 11:48:48;;;;;;;6.53;3.17;;;27.70;51.50;;;;;;2358293;52;21960;-70
2021/09/07 11:51:24;;;;;;;5.68;3.78;;;27.70;51.10;;;;;;2546715;52;21012;-68
2021/09/07 11:53:55;;;;;;;6.35;3.83;;;27.80;51.40;;;;;;2355807;52;21077;-69
2021/09/07 11:56:23;;;;;;;5.10;3.35;;;27.90;50.80;;;;;;2405043;52;21092;-72
2021/09/07 11:58:49;;;;;;;6.35;3.75;;;27.80;50.90;;;;;;2347495;53;20989;-73
2021/09/07 12:01:17;;;;;;;7.20;4.15;;;27.90;50.80;;;;;;2371713;52;21044;-69
2021/09/07 12:04:04;;;;;;;5.53;3.28;;;28.00;50.80;;;;;;2349796;53;21995;-72
2021/09/07 12:06:36;;;;;;;6.45;4.15;;;28.00;50.30;;;;;;2601965;52;21347;-69
2021/09/07 12:09:35;;;;;;;5.15;3.40;;;28.10;50.30;;;;;;2582901;52;21006;-67
2021/09/07 12:12:08;;;;;;;6.60;3.47;;;28.10;50.50;;;;;;2387404;52;20986;-69
2021/09/07 12:14:45;;;;;;;6.10;3.25;;;28.20;50.50;;;;;;2339182;53;21455;-71
2021/09/07 12:17:16;;;;;;;5.78;3.12;;;28.20;50.60;;;;;;2595101;52;21574;-70
2021/09/07 12:19:48;;;;;;;4.62;3.03;;;28.30;50.30;;;;;;2356803;52;20954;-69
2021/09/07 12:22:28;;;;;;;5.10;3.22;;;28.40;50.10;;;;;;2601647;52;20946;-69
2021/09/07 12:25:08;;;;;;;5.40;3.65;;;28.40;49.70;;;;;;2359593;52;21499;-70
2021/09/07 12:27:46;;;;;;;5.60;3.40;;;28.50;49.30;;;;;;2528941;52;21456;-69
2021/09/07 12:30:31;;;;;;;5.07;3.17;;;28.60;49.10;;;;;;2340448;52;20994;-69
2021/09/07 12:33:08;;;;;;;4.53;2.92;;;28.60;49.20;;;;;;2359122;53;21038;-69
2021/09/07 12:35:42;;;;;;;4.40;2.50;;;28.70;48.90;;;;;;2332668;53;24913;-72
2021/09/07 12:38:12;;;;;;;5.15;2.97;;;28.70;49.20;;;;;;2351424;53;21829;-68
2021/09/07 12:42:00;;;;;;;6.37;3.28;;;28.80;49.10;;;;;;2431556;52;21844;-69
2021/09/07 12:44:26;;;;;;;4.90;2.92;;;28.90;48.90;;;;;;2442358;52;20998;-69
2021/09/07 12:46:54;;;;;;;5.20;3.35;;;29.00;49.20;;;;;;2340431;53;20926;-69
2021/09/07 12:49:20;;;;;;;4.87;3.40;;;29.00;48.80;;;;;;2357088;52;21629;-69
2021/09/07 12:51:46;;;;;;;5.28;3.25;;;29.10;48.70;;;;;;2339144;53;21489;-69
2021/09/07 12:57:40;;;;;;;4.15;2.75;;;29.20;47.70;;;;;;2356816;52;21050;-68
2021/09/07 13:00:07;;;;;;;5.22;3.50;;;29.20;48.00;;;;;;2463056;52;21851;-70
2021/09/07 13:02:33;;;;;;;5.28;3.70;;;29.30;47.60;;;;;;2340996;52;21346;-68
2021/09/07 13:05:00;;;;;;;5.10;3.35;;;29.30;47.20;;;;;;2418609;52;20965;-68
2021/09/07 13:07:26;;;;;;;4.60;3.15;;;29.30;47.10;;;;;;2334433;53;20945;-69
2021/09/07 13:09:52;;;;;;;5.35;3.20;;;29.30;47.00;;;;;;2403090;52;21777;-69